createdAt,value
2023-01-08T16:25:26.593Z,10.70
2023-01-08T16:27:54.244Z,8.73
2023-01-08T16:30:21.326Z,8.68
2023-01-08T16:32:55.052Z,9.57
2023-01-08T16:35:22.509Z,8.98
2023-01-08T16:37:49.600Z,4.93
2023-01-08T16:40:17.609Z,5.25
2023-01-08T16:42:44.772Z,5.70
2023-01-08T16:45:12.526Z,5.97
2023-01-08T16:47:41.560Z,5.07
2023-01-08T16:50:15.369Z,4.57
2023-01-08T16:52:43.733Z,5.97
2023-01-08T16:55:11.681Z,4.68
2023-01-08T16:57:39.044Z,6.35
2023-01-08T17:00:07.173Z,5.55
2023-01-08T17:02:34.516Z,6.90
2023-01-08T17:05:05.296Z,6.32
2023-01-08T17:07:33.141Z,4.20
2023-01-08T17:10:00.775Z,7.43
2023-01-08T17:12:28.013Z,35.92
2023-01-08T17:14:59.873Z,43.17
2023-01-08T17:17:29.748Z,34.90
2023-01-08T17:20:00.099Z,10.82
2023-01-08T17:22:31.236Z,7.32
2023-01-08T17:24:59.134Z,7.82
2023-01-08T17:27:27.077Z,5.15
2023-01-08T17:29:55.300Z,4.88
2023-01-08T18:22:11.285Z,7.22
2023-01-08T18:24:39.905Z,5.63
2023-01-08T18:27:07.696Z,5.03
2023-01-08T18:29:35.037Z,5.05
2023-01-08T18:32:03.245Z,4.40
2023-01-08T21:05:03.741Z,8.80
2023-01-08T21:07:33.592Z,9.63
2023-01-08T21:10:04.145Z,4.25
2023-01-08T21:12:32.204Z,8.45
2023-01-08T21:14:59.689Z,6.15
2023-01-08T21:17:29.599Z,5.95
2023-01-08T21:19:57.173Z,8.13
2023-01-08T21:22:25.518Z,6.25
2023-01-08T21:24:53.671Z,5.10
2023-01-08T21:27:25.794Z,8.02
2023-01-08T21:29:57.586Z,4.05
2023-01-08T21:32:35.769Z,5.97
2023-01-08T21:35:04.936Z,7.55
2023-01-08T21:37:34.095Z,6.32
2023-01-08T21:40:01.128Z,5.00
2023-01-08T21:48:03.437Z,8.40
2023-01-08T21:53:24.529Z,5.55
2023-01-08T21:55:51.718Z,6.47
2023-01-08T21:58:18.815Z,6.00
2023-01-08T22:00:46.075Z,4.88
2023-01-08T22:03:13.723Z,4.88
2023-01-08T22:05:40.969Z,7.80
2023-01-08T22:08:09.622Z,3.30
2023-01-08T22:10:36.892Z,5.22
2023-01-08T22:13:03.937Z,3.95
